sensor_id;sensor_type;location;lat;lon;timestamp;P1;durP1;ratioP1;P2;durP2;ratioP2
22648;SDS011;11491;41.942;24.220;2023-03-16T00:01:02;27.83;;;17.05;;
22648;SDS011;11491;41.942;24.220;2023-03-16T00:03:31;34.22;;;21.08;;
22648;SDS011;11491;41.942;24.220;2023-03-16T00:05:57;36.85;;;22.70;;
22648;SDS011;11491;41.942;24.220;2023-03-16T00:08:24;30.08;;;19.92;;
22648;SDS011;11491;41.942;24.220;2023-03-16T00:10:51;28.52;;;18.20;;
22648;SDS011;11491;41.942;24.220;2023-03-16T00:13:19;28.45;;;17.48;;
22648;SDS011;11491;41.942;24.220;2023-03-16T00:15:51;25.00;;;15.00;;
22648;SDS011;11491;41.942;24.220;2023-03-16T00:18:19;18.00;;;11.23;;
22648;SDS011;11491;41.942;24.220;2023-03-16T00:20:52;17.23;;;11.60;;
22648;SDS011;11491;41.942;24.220;2023-03-16T00:23:21;26.15;;;16.52;;
22648;SDS011;11491;41.942;24.220;2023-03-16T00:25:51;42.67;;;23.52;;
22648;SDS011;11491;41.942;24.220;2023-03-16T00:28:19;25.80;;;15.48;;
22648;SDS011;11491;41.942;24.220;2023-03-16T00:30:46;25.00;;;15.20;;
22648;SDS011;11491;41.942;24.220;2023-03-16T00:33:13;26.10;;;18.83;;
22648;SDS011;11491;41.942;24.220;2023-03-16T00:35:40;20.95;;;13.40;;
22648;SDS011;11491;41.942;24.220;2023-03-16T00:38:15;16.70;;;11.98;;
22648;SDS011;11491;41.942;24.220;2023-03-16T00:40:43;15.25;;;11.60;;
22648;SDS011;11491;41.942;24.220;2023-03-16T00:43:10;18.45;;;10.63;;
22648;SDS011;11491;41.942;24.220;2023-03-16T00:45:37;12.77;;;8.07;;
22648;SDS011;11491;41.942;24.220;2023-03-16T00:48:04;9.05;;;6.03;;
22648;SDS011;11491;41.942;24.220;2023-03-16T00:50:30;8.13;;;5.85;;
22648;SDS011;11491;41.942;24.220;2023-03-16T00:52:57;10.10;;;6.78;;
22648;SDS011;11491;41.942;24.220;2023-03-16T00:55:25;12.18;;;8.02;;
22648;SDS011;11491;41.942;24.220;2023-03-16T00:57:52;19.60;;;11.02;;
22648;SDS011;11491;41.942;24.220;2023-03-16T01:00:19;14.23;;;9.35;;
22648;SDS011;11491;41.942;24.220;2023-03-16T01:02:49;12.00;;;8.50;;
22648;SDS011;11491;41.942;24.220;2023-03-16T01:05:16;10.55;;;7.00;;
22648;SDS011;11491;41.942;24.220;2023-03-16T01:07:43;18.00;;;9.00;;
22648;SDS011;11491;41.942;24.220;2023-03-16T01:10:10;28.60;;;12.85;;
22648;SDS011;11491;41.942;24.220;2023-03-16T01:12:39;23.33;;;14.07;;
22648;SDS011;11491;41.942;24.220;2023-03-16T01:15:06;24.90;;;15.52;;
22648;SDS011;11491;41.942;24.220;2023-03-16T01:17:34;20.48;;;13.77;;
22648;SDS011;11491;41.942;24.220;2023-03-16T01:20:00;22.75;;;14.93;;
22648;SDS011;11491;41.942;24.220;2023-03-16T01:22:32;32.90;;;23.77;;
22648;SDS011;11491;41.942;24.220;2023-03-16T01:24:58;34.58;;;24.77;;
22648;SDS011;11491;41.942;24.220;2023-03-16T01:27:25;29.58;;;18.65;;
22648;SDS011;11491;41.942;24.220;2023-03-16T01:29:53;22.67;;;13.68;;
22648;SDS011;11491;41.942;24.220;2023-03-16T01:32:20;20.23;;;13.30;;
22648;SDS011;11491;41.942;24.220;2023-03-16T01:34:47;18.80;;;12.57;;
22648;SDS011;11491;41.942;24.220;2023-03-16T01:37:14;22.15;;;13.90;;
22648;SDS011;11491;41.942;24.220;2023-03-16T01:39:40;22.63;;;14.05;;
22648;SDS011;11491;41.942;24.220;2023-03-16T01:42:07;21.65;;;13.57;;
22648;SDS011;11491;41.942;24.220;2023-03-16T01:44:51;26.27;;;19.13;;
22648;SDS011;11491;41.942;24.220;2023-03-16T01:47:21;23.80;;;15.98;;
22648;SDS011;11491;41.942;24.220;2023-03-16T01:49:48;24.70;;;13.85;;
22648;SDS011;11491;41.942;24.220;2023-03-16T01:52:20;24.30;;;15.35;;
22648;SDS011;11491;41.942;24.220;2023-03-16T01:54:50;23.17;;;15.75;;
22648;SDS011;11491;41.942;24.220;2023-03-16T01:57:21;21.58;;;15.05;;
22648;SDS011;11491;41.942;24.220;2023-03-16T01:59:50;23.33;;;13.80;;
22648;SDS011;11491;41.942;24.220;2023-03-16T02:02:22;17.88;;;12.55;;
22648;SDS011;11491;41.942;24.220;2023-03-16T02:04:52;23.42;;;15.25;;
22648;SDS011;11491;41.942;24.220;2023-03-16T02:07:24;18.65;;;12.07;;
22648;SDS011;11491;41.942;24.220;2023-03-16T02:09:55;16.52;;;11.45;;
22648;SDS011;11491;41.942;24.220;2023-03-16T02:12:26;15.97;;;10.63;;
22648;SDS011;11491;41.942;24.220;2023-03-16T02:14:54;15.15;;;9.50;;
22648;SDS011;11491;41.942;24.220;2023-03-16T02:17:22;15.00;;;10.00;;
22648;SDS011;11491;41.942;24.220;2023-03-16T02:19:54;15.85;;;11.25;;
22648;SDS011;11491;41.942;24.220;2023-03-16T02:22:33;15.98;;;10.50;;
22648;SDS011;11491;41.942;24.220;2023-03-16T02:25:00;14.05;;;10.15;;
22648;SDS011;11491;41.942;24.220;2023-03-16T02:27:29;20.10;;;11.50;;
22648;SDS011;11491;41.942;24.220;2023-03-16T02:30:07;18.20;;;11.68;;
22648;SDS011;11491;41.942;24.220;2023-03-16T02:32:36;17.23;;;10.45;;
22648;SDS011;11491;41.942;24.220;2023-03-16T02:35:05;15.75;;;11.18;;
22648;SDS011;11491;41.942;24.220;2023-03-16T02:37:33;19.58;;;10.55;;
22648;SDS011;11491;41.942;24.220;2023-03-16T02:39:59;18.98;;;12.55;;
22648;SDS011;11491;41.942;24.220;2023-03-16T02:42:30;19.95;;;13.52;;
22648;SDS011;11491;41.942;24.220;2023-03-16T02:44:57;20.88;;;13.40;;
22648;SDS011;11491;41.942;24.220;2023-03-16T02:47:31;21.17;;;12.27;;
22648;SDS011;11491;41.942;24.220;2023-03-16T02:50:01;21.60;;;12.75;;
22648;SDS011;11491;41.942;24.220;2023-03-16T02:52:30;26.88;;;15.02;;
22648;SDS011;11491;41.942;24.220;2023-03-16T02:54:58;21.20;;;14.75;;
22648;SDS011;11491;41.942;24.220;2023-03-16T02:57:24;23.05;;;14.60;;
22648;SDS011;11491;41.942;24.220;2023-03-16T02:59:51;23.73;;;15.70;;
22648;SDS011;11491;41.942;24.220;2023-03-16T03:02:18;26.60;;;15.88;;
22648;SDS011;11491;41.942;24.220;2023-03-16T03:04:46;57.78;;;32.60;;
22648;SDS011;11491;41.942;24.220;2023-03-16T03:07:13;40.25;;;22.50;;
22648;SDS011;11491;41.942;24.220;2023-03-16T03:09:41;38.67;;;22.40;;
22648;SDS011;11491;41.942;24.220;2023-03-16T03:12:08;35.03;;;20.33;;
22648;SDS011;11491;41.942;24.220;2023-03-16T03:14:35;34.67;;;22.50;;
22648;SDS011;11491;41.942;24.220;2023-03-16T03:17:03;33.60;;;23.42;;
22648;SDS011;11491;41.942;24.220;2023-03-16T03:19:31;31.75;;;19.80;;
22648;SDS011;11491;41.942;24.220;2023-03-16T03:21:59;26.50;;;16.08;;
22648;SDS011;11491;41.942;24.220;2023-03-16T03:24:28;25.77;;;17.05;;
22648;SDS011;11491;41.942;24.220;2023-03-16T03:26:56;34.13;;;24.10;;
22648;SDS011;11491;41.942;24.220;2023-03-16T03:29:23;32.47;;;22.13;;
22648;SDS011;11491;41.942;24.220;2023-03-16T03:31:49;31.75;;;20.05;;
22648;SDS011;11491;41.942;24.220;2023-03-16T03:34:16;147.00;;;83.80;;
22648;SDS011;11491;41.942;24.220;2023-03-16T03:36:43;86.97;;;56.13;;
22648;SDS011;11491;41.942;24.220;2023-03-16T03:39:11;50.95;;;38.65;;
22648;SDS011;11491;41.942;24.220;2023-03-16T03:41:38;29.85;;;21.08;;
22648;SDS011;11491;41.942;24.220;2023-03-16T03:44:05;17.52;;;12.82;;
22648;SDS011;11491;41.942;24.220;2023-03-16T03:46:31;18.80;;;12.35;;
22648;SDS011;11491;41.942;24.220;2023-03-16T03:48:58;19.73;;;12.88;;
22648;SDS011;11491;41.942;24.220;2023-03-16T03:51:28;16.98;;;10.93;;
22648;SDS011;11491;41.942;24.220;2023-03-16T03:53:55;17.58;;;11.65;;
22648;SDS011;11491;41.942;24.220;2023-03-16T03:56:23;14.00;;;10.70;;
22648;SDS011;11491;41.942;24.220;2023-03-16T03:58:51;14.77;;;10.07;;
22648;SDS011;11491;41.942;24.220;2023-03-16T04:01:18;13.05;;;9.68;;
22648;SDS011;11491;41.942;24.220;2023-03-16T04:03:45;14.43;;;9.48;;
22648;SDS011;11491;41.942;24.220;2023-03-16T04:06:12;12.73;;;9.93;;
22648;SDS011;11491;41.942;24.220;2023-03-16T04:08:38;13.30;;;9.70;;
22648;SDS011;11491;41.942;24.220;2023-03-16T04:11:05;13.05;;;9.63;;
22648;SDS011;11491;41.942;24.220;2023-03-16T04:13:33;14.05;;;9.52;;
22648;SDS011;11491;41.942;24.220;2023-03-16T04:16:00;13.18;;;9.60;;
22648;SDS011;11491;41.942;24.220;2023-03-16T04:18:27;15.88;;;9.07;;
22648;SDS011;11491;41.942;24.220;2023-03-16T04:21:02;13.63;;;9.50;;
22648;SDS011;11491;41.942;24.220;2023-03-16T04:23:30;12.88;;;9.10;;
22648;SDS011;11491;41.942;24.220;2023-03-16T04:25:57;13.80;;;9.52;;
22648;SDS011;11491;41.942;24.220;2023-03-16T04:28:24;13.35;;;8.88;;
22648;SDS011;11491;41.942;24.220;2023-03-16T04:30:53;12.77;;;9.93;;
22648;SDS011;11491;41.942;24.220;2023-03-16T04:33:20;14.52;;;10.10;;
22648;SDS011;11491;41.942;24.220;2023-03-16T04:35:46;18.85;;;13.93;;
22648;SDS011;11491;41.942;24.220;2023-03-16T04:38:13;28.30;;;14.93;;
22648;SDS011;11491;41.942;24.220;2023-03-16T04:40:40;42.40;;;18.40;;
22648;SDS011;11491;41.942;24.220;2023-03-16T04:43:07;23.85;;;16.13;;
22648;SDS011;11491;41.942;24.220;2023-03-16T04:45:33;19.08;;;14.95;;
22648;SDS011;11491;41.942;24.220;2023-03-16T04:48:02;14.85;;;11.63;;
22648;SDS011;11491;41.942;24.220;2023-03-16T04:50:29;16.85;;;12.40;;
22648;SDS011;11491;41.942;24.220;2023-03-16T04:52:55;15.07;;;11.70;;
22648;SDS011;11491;41.942;24.220;2023-03-16T04:55:22;16.23;;;11.35;;
22648;SDS011;11491;41.942;24.220;2023-03-16T04:57:49;14.95;;;10.90;;
22648;SDS011;11491;41.942;24.220;2023-03-16T05:00:16;14.30;;;10.10;;
22648;SDS011;11491;41.942;24.220;2023-03-16T05:02:44;12.48;;;9.90;;
22648;SDS011;11491;41.942;24.220;2023-03-16T05:05:12;15.00;;;10.55;;
22648;SDS011;11491;41.942;24.220;2023-03-16T05:07:40;14.98;;;12.35;;
22648;SDS011;11491;41.942;24.220;2023-03-16T05:10:07;18.45;;;13.20;;
22648;SDS011;11491;41.942;24.220;2023-03-16T05:12:35;13.82;;;10.65;;
22648;SDS011;11491;41.942;24.220;2023-03-16T05:15:01;17.30;;;13.13;;
22648;SDS011;11491;41.942;24.220;2023-03-16T05:17:32;19.15;;;15.55;;
22648;SDS011;11491;41.942;24.220;2023-03-16T05:19:58;74.85;;;51.15;;
22648;SDS011;11491;41.942;24.220;2023-03-16T05:22:27;25.55;;;19.83;;
22648;SDS011;11491;41.942;24.220;2023-03-16T05:24:53;17.08;;;13.68;;
22648;SDS011;11491;41.942;24.220;2023-03-16T05:27:20;20.27;;;15.13;;
22648;SDS011;11491;41.942;24.220;2023-03-16T05:29:47;20.50;;;15.15;;
22648;SDS011;11491;41.942;24.220;2023-03-16T05:32:14;19.08;;;15.10;;
22648;SDS011;11491;41.942;24.220;2023-03-16T05:34:41;20.33;;;14.85;;
22648;SDS011;11491;41.942;24.220;2023-03-16T05:37:08;25.75;;;19.08;;
22648;SDS011;11491;41.942;24.220;2023-03-16T05:39:37;24.85;;;19.08;;
22648;SDS011;11491;41.942;24.220;2023-03-16T05:42:03;23.00;;;16.42;;
22648;SDS011;11491;41.942;24.220;2023-03-16T05:44:31;20.90;;;16.48;;
22648;SDS011;11491;41.942;24.220;2023-03-16T05:46:58;27.17;;;20.15;;
22648;SDS011;11491;41.942;24.220;2023-03-16T05:49:25;19.05;;;13.98;;
22648;SDS011;11491;41.942;24.220;2023-03-16T05:51:51;14.88;;;11.38;;
22648;SDS011;11491;41.942;24.220;2023-03-16T05:54:18;13.23;;;10.52;;
22648;SDS011;11491;41.942;24.220;2023-03-16T05:56:47;12.52;;;9.43;;
22648;SDS011;11491;41.942;24.220;2023-03-16T05:59:13;12.40;;;10.10;;
22648;SDS011;11491;41.942;24.220;2023-03-16T06:01:42;13.73;;;10.27;;
22648;SDS011;11491;41.942;24.220;2023-03-16T06:04:08;16.42;;;12.00;;
22648;SDS011;11491;41.942;24.220;2023-03-16T06:06:35;14.13;;;10.90;;
22648;SDS011;11491;41.942;24.220;2023-03-16T06:09:02;15.75;;;12.85;;
22648;SDS011;11491;41.942;24.220;2023-03-16T06:11:29;20.88;;;15.75;;
22648;SDS011;11491;41.942;24.220;2023-03-16T06:13:58;15.65;;;11.73;;
22648;SDS011;11491;41.942;24.220;2023-03-16T06:16:25;8.30;;;6.05;;
22648;SDS011;11491;41.942;24.220;2023-03-16T06:18:52;26.38;;;19.33;;
22648;SDS011;11491;41.942;24.220;2023-03-16T06:21:20;34.65;;;21.35;;
22648;SDS011;11491;41.942;24.220;2023-03-16T06:23:47;19.65;;;13.55;;
22648;SDS011;11491;41.942;24.220;2023-03-16T06:26:14;32.78;;;20.45;;
22648;SDS011;11491;41.942;24.220;2023-03-16T06:28:40;33.85;;;21.27;;
22648;SDS011;11491;41.942;24.220;2023-03-16T06:31:09;30.65;;;20.23;;
22648;SDS011;11491;41.942;24.220;2023-03-16T06:33:36;26.60;;;17.08;;
22648;SDS011;11491;41.942;24.220;2023-03-16T06:36:03;32.20;;;21.92;;
22648;SDS011;11491;41.942;24.220;2023-03-16T06:38:29;14.32;;;11.35;;
22648;SDS011;11491;41.942;24.220;2023-03-16T06:40:57;13.63;;;11.40;;
22648;SDS011;11491;41.942;24.220;2023-03-16T06:43:24;12.25;;;10.52;;
22648;SDS011;11491;41.942;24.220;2023-03-16T06:45:51;12.27;;;10.88;;
22648;SDS011;11491;41.942;24.220;2023-03-16T06:48:19;19.95;;;15.52;;
22648;SDS011;11491;41.942;24.220;2023-03-16T06:50:46;31.60;;;21.75;;
22648;SDS011;11491;41.942;24.220;2023-03-16T06:53:13;20.20;;;15.85;;
22648;SDS011;11491;41.942;24.220;2023-03-16T06:55:39;23.20;;;16.85;;
22648;SDS011;11491;41.942;24.220;2023-03-16T06:58:06;15.50;;;11.50;;
22648;SDS011;11491;41.942;24.220;2023-03-16T07:00:33;13.80;;;11.50;;
22648;SDS011;11491;41.942;24.220;2023-03-16T07:03:00;13.25;;;10.73;;
22648;SDS011;11491;41.942;24.220;2023-03-16T07:05:28;12.32;;;10.45;;
22648;SDS011;11491;41.942;24.220;2023-03-16T07:07:55;18.00;;;14.13;;
22648;SDS011;11491;41.942;24.220;2023-03-16T07:10:22;17.25;;;14.07;;
22648;SDS011;11491;41.942;24.220;2023-03-16T07:12:49;24.27;;;18.15;;
22648;SDS011;11491;41.942;24.220;2023-03-16T07:15:16;26.23;;;21.38;;
22648;SDS011;11491;41.942;24.220;2023-03-16T07:17:43;24.98;;;18.85;;
22648;SDS011;11491;41.942;24.220;2023-03-16T07:20:10;36.33;;;28.48;;
22648;SDS011;11491;41.942;24.220;2023-03-16T07:22:39;30.48;;;24.25;;
22648;SDS011;11491;41.942;24.220;2023-03-16T07:25:07;53.83;;;47.80;;
22648;SDS011;11491;41.942;24.220;2023-03-16T07:27:35;29.05;;;22.60;;
22648;SDS011;11491;41.942;24.220;2023-03-16T07:30:03;25.20;;;19.40;;
22648;SDS011;11491;41.942;24.220;2023-03-16T07:32:30;29.27;;;23.80;;
22648;SDS011;11491;41.942;24.220;2023-03-16T07:34:57;20.98;;;17.02;;
22648;SDS011;11491;41.942;24.220;2023-03-16T07:37:24;27.58;;;19.25;;
22648;SDS011;11491;41.942;24.220;2023-03-16T07:39:52;26.00;;;17.65;;
22648;SDS011;11491;41.942;24.220;2023-03-16T07:42:19;25.85;;;17.73;;
22648;SDS011;11491;41.942;24.220;2023-03-16T07:44:46;31.00;;;19.58;;
22648;SDS011;11491;41.942;24.220;2023-03-16T07:47:13;19.35;;;15.20;;
22648;SDS011;11491;41.942;24.220;2023-03-16T07:49:40;18.85;;;14.52;;
22648;SDS011;11491;41.942;24.220;2023-03-16T07:52:08;24.08;;;18.30;;
22648;SDS011;11491;41.942;24.220;2023-03-16T07:54:37;19.08;;;13.50;;
22648;SDS011;11491;41.942;24.220;2023-03-16T07:57:06;18.70;;;14.65;;
22648;SDS011;11491;41.942;24.220;2023-03-16T07:59:33;19.35;;;16.00;;
22648;SDS011;11491;41.942;24.220;2023-03-16T08:02:00;10.57;;;8.35;;
22648;SDS011;11491;41.942;24.220;2023-03-16T08:04:27;30.60;;;19.67;;
22648;SDS011;11491;41.942;24.220;2023-03-16T08:06:53;22.67;;;15.27;;
22648;SDS011;11491;41.942;24.220;2023-03-16T08:09:24;16.02;;;13.00;;
22648;SDS011;11491;41.942;24.220;2023-03-16T08:11:51;16.42;;;12.63;;
22648;SDS011;11491;41.942;24.220;2023-03-16T08:14:19;12.50;;;10.18;;
22648;SDS011;11491;41.942;24.220;2023-03-16T08:16:46;19.23;;;12.68;;
22648;SDS011;11491;41.942;24.220;2023-03-16T08:19:13;41.28;;;20.90;;
22648;SDS011;11491;41.942;24.220;2023-03-16T08:21:41;30.63;;;17.92;;
22648;SDS011;11491;41.942;24.220;2023-03-16T08:24:08;44.70;;;16.60;;
22648;SDS011;11491;41.942;24.220;2023-03-16T08:26:35;31.77;;;22.95;;
22648;SDS011;11491;41.942;24.220;2023-03-16T08:29:02;22.52;;;14.90;;
22648;SDS011;11491;41.942;24.220;2023-03-16T08:31:30;22.20;;;16.40;;
22648;SDS011;11491;41.942;24.220;2023-03-16T08:33:59;15.63;;;11.60;;
22648;SDS011;11491;41.942;24.220;2023-03-16T08:36:26;20.77;;;15.32;;
22648;SDS011;11491;41.942;24.220;2023-03-16T08:38:54;15.00;;;11.68;;
22648;SDS011;11491;41.942;24.220;2023-03-16T08:41:21;14.35;;;10.93;;
22648;SDS011;11491;41.942;24.220;2023-03-16T08:43:48;8.80;;;7.68;;
22648;SDS011;11491;41.942;24.220;2023-03-16T08:46:16;9.32;;;8.43;;
22648;SDS011;11491;41.942;24.220;2023-03-16T08:48:44;11.32;;;8.25;;
22648;SDS011;11491;41.942;24.220;2023-03-16T08:51:11;9.85;;;8.30;;
22648;SDS011;11491;41.942;24.220;2023-03-16T08:53:37;18.25;;;13.85;;
22648;SDS011;11491;41.942;24.220;2023-03-16T08:56:05;14.20;;;11.25;;
22648;SDS011;11491;41.942;24.220;2023-03-16T08:58:33;16.98;;;14.35;;
22648;SDS011;11491;41.942;24.220;2023-03-16T09:01:02;14.00;;;11.23;;
22648;SDS011;11491;41.942;24.220;2023-03-16T09:03:29;16.67;;;10.27;;
22648;SDS011;11491;41.942;24.220;2023-03-16T09:06:00;12.25;;;10.45;;
22648;SDS011;11491;41.942;24.220;2023-03-16T09:08:28;26.27;;;16.65;;
22648;SDS011;11491;41.942;24.220;2023-03-16T09:10:58;12.88;;;9.43;;
22648;SDS011;11491;41.942;24.220;2023-03-16T09:13:26;13.52;;;8.93;;
22648;SDS011;11491;41.942;24.220;2023-03-16T09:15:53;10.10;;;7.70;;
22648;SDS011;11491;41.942;24.220;2023-03-16T09:18:20;24.35;;;18.48;;
22648;SDS011;11491;41.942;24.220;2023-03-16T09:20:48;11.23;;;6.20;;
22648;SDS011;11491;41.942;24.220;2023-03-16T09:23:16;19.98;;;17.52;;
22648;SDS011;11491;41.942;24.220;2023-03-16T09:25:45;15.55;;;11.82;;
22648;SDS011;11491;41.942;24.220;2023-03-16T09:28:12;11.75;;;8.68;;
22648;SDS011;11491;41.942;24.220;2023-03-16T09:30:39;18.77;;;8.93;;
22648;SDS011;11491;41.942;24.220;2023-03-16T09:33:06;9.45;;;7.07;;
22648;SDS011;11491;41.942;24.220;2023-03-16T09:35:33;11.25;;;8.18;;
22648;SDS011;11491;41.942;24.220;2023-03-16T09:38:01;7.57;;;5.93;;
22648;SDS011;11491;41.942;24.220;2023-03-16T09:40:29;9.93;;;6.70;;
22648;SDS011;11491;41.942;24.220;2023-03-16T09:43:01;10.55;;;7.85;;
22648;SDS011;11491;41.942;24.220;2023-03-16T09:45:40;23.30;;;17.25;;
22648;SDS011;11491;41.942;24.220;2023-03-16T09:48:16;9.85;;;6.30;;
22648;SDS011;11491;41.942;24.220;2023-03-16T09:50:45;15.88;;;11.85;;
22648;SDS011;11491;41.942;24.220;2023-03-16T09:53:15;8.38;;;5.60;;
22648;SDS011;11491;41.942;24.220;2023-03-16T09:55:50;7.55;;;5.60;;
22648;SDS011;11491;41.942;24.220;2023-03-16T09:58:19;6.05;;;4.20;;
22648;SDS011;11491;41.942;24.220;2023-03-16T10:00:49;4.82;;;3.55;;
22648;SDS011;11491;41.942;24.220;2023-03-16T10:03:29;6.10;;;3.33;;
22648;SDS011;11491;41.942;24.220;2023-03-16T10:06:07;4.30;;;2.75;;
22648;SDS011;11491;41.942;24.220;2023-03-16T10:08:38;5.32;;;3.45;;
22648;SDS011;11491;41.942;24.220;2023-03-16T10:11:27;4.53;;;3.00;;
22648;SDS011;11491;41.942;24.220;2023-03-16T10:13:59;8.52;;;5.55;;
22648;SDS011;11491;41.942;24.220;2023-03-16T10:16:31;6.00;;;4.63;;
22648;SDS011;11491;41.942;24.220;2023-03-16T10:19:07;16.65;;;13.55;;
22648;SDS011;11491;41.942;24.220;2023-03-16T10:21:39;6.68;;;4.05;;
22648;SDS011;11491;41.942;24.220;2023-03-16T10:24:12;9.25;;;6.30;;
22648;SDS011;11491;41.942;24.220;2023-03-16T10:26:48;12.93;;;9.48;;
22648;SDS011;11491;41.942;24.220;2023-03-16T10:29:24;7.47;;;5.90;;
22648;SDS011;11491;41.942;24.220;2023-03-16T10:31:51;12.98;;;8.73;;
22648;SDS011;11491;41.942;24.220;2023-03-16T10:34:23;5.82;;;4.32;;
22648;SDS011;11491;41.942;24.220;2023-03-16T10:36:50;7.07;;;4.95;;
22648;SDS011;11491;41.942;24.220;2023-03-16T10:39:19;16.77;;;15.07;;
22648;SDS011;11491;41.942;24.220;2023-03-16T10:41:53;18.90;;;16.88;;
22648;SDS011;11491;41.942;24.220;2023-03-16T10:44:22;2.35;;;1.90;;
22648;SDS011;11491;41.942;24.220;2023-03-16T10:46:58;5.15;;;3.97;;
22648;SDS011;11491;41.942;24.220;2023-03-16T10:49:28;5.30;;;4.55;;
22648;SDS011;11491;41.942;24.220;2023-03-16T10:52:04;7.78;;;6.75;;
22648;SDS011;11491;41.942;24.220;2023-03-16T10:54:34;9.18;;;8.15;;
22648;SDS011;11491;41.942;24.220;2023-03-16T10:57:13;17.77;;;13.23;;
22648;SDS011;11491;41.942;24.220;2023-03-16T10:59:49;21.08;;;17.77;;
22648;SDS011;11491;41.942;24.220;2023-03-16T11:02:18;12.70;;;11.38;;
22648;SDS011;11491;41.942;24.220;2023-03-16T11:04:49;5.82;;;5.22;;
22648;SDS011;11491;41.942;24.220;2023-03-16T11:07:17;5.63;;;3.97;;
22648;SDS011;11491;41.942;24.220;2023-03-16T11:09:48;13.38;;;8.73;;
22648;SDS011;11491;41.942;24.220;2023-03-16T11:12:22;4.85;;;4.28;;
22648;SDS011;11491;41.942;24.220;2023-03-16T11:14:51;6.57;;;5.57;;
22648;SDS011;11491;41.942;24.220;2023-03-16T11:17:20;8.20;;;4.15;;
22648;SDS011;11491;41.942;24.220;2023-03-16T11:19:55;18.25;;;12.70;;
22648;SDS011;11491;41.942;24.220;2023-03-16T11:22:26;10.18;;;9.15;;
22648;SDS011;11491;41.942;24.220;2023-03-16T11:24:56;6.25;;;5.43;;
22648;SDS011;11491;41.942;24.220;2023-03-16T11:27:34;7.63;;;6.22;;
22648;SDS011;11491;41.942;24.220;2023-03-16T11:30:10;10.27;;;8.52;;
22648;SDS011;11491;41.942;24.220;2023-03-16T11:32:42;15.88;;;11.50;;
22648;SDS011;11491;41.942;24.220;2023-03-16T11:35:13;5.97;;;5.38;;
22648;SDS011;11491;41.942;24.220;2023-03-16T11:38:02;16.02;;;10.43;;
22648;SDS011;11491;41.942;24.220;2023-03-16T11:40:37;49.78;;;27.80;;
22648;SDS011;11491;41.942;24.220;2023-03-16T11:46:08;12.23;;;9.98;;
22648;SDS011;11491;41.942;24.220;2023-03-16T11:48:40;3.55;;;2.63;;
22648;SDS011;11491;41.942;24.220;2023-03-16T11:51:12;11.50;;;9.80;;
22648;SDS011;11491;41.942;24.220;2023-03-16T11:53:51;10.82;;;7.35;;
22648;SDS011;11491;41.942;24.220;2023-03-16T11:56:28;8.25;;;6.15;;
22648;SDS011;11491;41.942;24.220;2023-03-16T11:59:02;5.80;;;3.37;;
22648;SDS011;11491;41.942;24.220;2023-03-16T12:01:57;14.65;;;11.93;;
22648;SDS011;11491;41.942;24.220;2023-03-16T12:04:38;7.78;;;6.80;;
22648;SDS011;11491;41.942;24.220;2023-03-16T12:07:30;5.25;;;4.57;;
22648;SDS011;11491;41.942;24.220;2023-03-16T12:10:08;5.03;;;4.50;;
22648;SDS011;11491;41.942;24.220;2023-03-16T12:12:46;11.88;;;10.50;;
22648;SDS011;11491;41.942;24.220;2023-03-16T12:15:27;8.77;;;7.88;;
22648;SDS011;11491;41.942;24.220;2023-03-16T12:18:01;10.52;;;6.90;;
22648;SDS011;11491;41.942;24.220;2023-03-16T12:20:37;7.45;;;6.13;;
22648;SDS011;11491;41.942;24.220;2023-03-16T12:23:09;11.18;;;10.07;;
22648;SDS011;11491;41.942;24.220;2023-03-16T12:25:41;12.63;;;10.00;;
22648;SDS011;11491;41.942;24.220;2023-03-16T12:28:15;10.95;;;9.73;;
22648;SDS011;11491;41.942;24.220;2023-03-16T12:30:51;3.92;;;3.50;;
22648;SDS011;11491;41.942;24.220;2023-03-16T12:33:25;17.15;;;12.40;;
22648;SDS011;11491;41.942;24.220;2023-03-16T12:36:02;10.13;;;6.20;;
22648;SDS011;11491;41.942;24.220;2023-03-16T12:38:38;16.27;;;12.63;;
22648;SDS011;11491;41.942;24.220;2023-03-16T12:41:15;17.70;;;13.63;;
22648;SDS011;11491;41.942;24.220;2023-03-16T12:46:44;8.02;;;7.22;;
22648;SDS011;11491;41.942;24.220;2023-03-16T12:49:20;8.60;;;7.75;;
22648;SDS011;11491;41.942;24.220;2023-03-16T12:51:57;12.73;;;10.23;;
22648;SDS011;11491;41.942;24.220;2023-03-16T12:54:24;11.27;;;8.57;;
22648;SDS011;11491;41.942;24.220;2023-03-16T12:56:52;10.30;;;7.88;;
22648;SDS011;11491;41.942;24.220;2023-03-16T12:59:25;70.43;;;37.78;;
22648;SDS011;11491;41.942;24.220;2023-03-16T13:02:07;62.53;;;33.97;;
22648;SDS011;11491;41.942;24.220;2023-03-16T13:04:40;57.72;;;31.35;;
22648;SDS011;11491;41.942;24.220;2023-03-16T13:07:13;40.15;;;24.90;;
22648;SDS011;11491;41.942;24.220;2023-03-16T13:09:45;27.50;;;19.55;;
22648;SDS011;11491;41.942;24.220;2023-03-16T13:12:24;30.58;;;22.35;;
22648;SDS011;11491;41.942;24.220;2023-03-16T13:14:51;24.42;;;17.55;;
22648;SDS011;11491;41.942;24.220;2023-03-16T13:17:31;25.00;;;17.27;;
22648;SDS011;11491;41.942;24.220;2023-03-16T13:23:05;9.48;;;5.50;;
22648;SDS011;11491;41.942;24.220;2023-03-16T13:25:57;7.05;;;5.93;;
22648;SDS011;11491;41.942;24.220;2023-03-16T13:28:29;8.55;;;6.75;;
22648;SDS011;11491;41.942;24.220;2023-03-16T13:30:58;9.70;;;7.63;;
22648;SDS011;11491;41.942;24.220;2023-03-16T13:33:31;8.00;;;5.57;;
22648;SDS011;11491;41.942;24.220;2023-03-16T13:36:01;9.77;;;7.43;;
22648;SDS011;11491;41.942;24.220;2023-03-16T13:38:30;12.27;;;9.80;;
22648;SDS011;11491;41.942;24.220;2023-03-16T13:41:00;9.15;;;6.45;;
22648;SDS011;11491;41.942;24.220;2023-03-16T13:43:30;7.18;;;5.10;;
22648;SDS011;11491;41.942;24.220;2023-03-16T13:45:59;13.35;;;7.35;;
22648;SDS011;11491;41.942;24.220;2023-03-16T13:48:28;7.40;;;4.95;;
22648;SDS011;11491;41.942;24.220;2023-03-16T13:50:56;6.05;;;4.82;;
22648;SDS011;11491;41.942;24.220;2023-03-16T13:53:24;9.85;;;6.55;;
22648;SDS011;11491;41.942;24.220;2023-03-16T13:55:54;10.57;;;6.68;;
22648;SDS011;11491;41.942;24.220;2023-03-16T13:58:22;7.45;;;5.03;;
22648;SDS011;11491;41.942;24.220;2023-03-16T14:00:53;14.77;;;10.98;;
22648;SDS011;11491;41.942;24.220;2023-03-16T14:03:21;14.30;;;11.10;;
22648;SDS011;11491;41.942;24.220;2023-03-16T14:05:48;19.08;;;14.98;;
22648;SDS011;11491;41.942;24.220;2023-03-16T14:08:17;17.73;;;12.77;;
22648;SDS011;11491;41.942;24.220;2023-03-16T14:10:45;13.57;;;10.45;;
22648;SDS011;11491;41.942;24.220;2023-03-16T14:13:23;10.57;;;8.02;;
22648;SDS011;11491;41.942;24.220;2023-03-16T14:15:58;18.70;;;12.73;;
22648;SDS011;11491;41.942;24.220;2023-03-16T14:18:29;18.85;;;15.23;;
22648;SDS011;11491;41.942;24.220;2023-03-16T14:21:04;21.48;;;10.75;;
22648;SDS011;11491;41.942;24.220;2023-03-16T14:23:34;12.80;;;7.75;;
22648;SDS011;11491;41.942;24.220;2023-03-16T14:26:03;8.95;;;6.53;;
22648;SDS011;11491;41.942;24.220;2023-03-16T14:28:32;14.25;;;9.60;;
22648;SDS011;11491;41.942;24.220;2023-03-16T14:31:03;17.08;;;11.77;;
22648;SDS011;11491;41.942;24.220;2023-03-16T14:33:31;23.13;;;17.45;;
22648;SDS011;11491;41.942;24.220;2023-03-16T14:36:06;10.73;;;7.50;;
22648;SDS011;11491;41.942;24.220;2023-03-16T14:38:38;20.73;;;16.40;;